sensor_id;sensor_type;location;lat;lon;timestamp;temperature;humidity
40676;DHT22;26359;48.750;9.314;2022-12-18T00:01:23;-6.40;99.90
40676;DHT22;26359;48.750;9.314;2022-12-18T00:03:50;-6.40;99.90
40676;DHT22;26359;48.750;9.314;2022-12-18T00:06:16;-6.40;99.90
40676;DHT22;26359;48.750;9.314;2022-12-18T00:08:43;-6.40;99.90
40676;DHT22;26359;48.750;9.314;2022-12-18T00:11:12;-6.40;99.90
40676;DHT22;26359;48.750;9.314;2022-12-18T00:13:38;-6.30;99.90
40676;DHT22;26359;48.750;9.314;2022-12-18T00:16:06;-6.20;99.90
40676;DHT22;26359;48.750;9.314;2022-12-18T00:18:33;-6.10;99.90
40676;DHT22;26359;48.750;9.314;2022-12-18T00:21:00;-6.20;99.90
40676;DHT22;26359;48.750;9.314;2022-12-18T00:23:27;-6.10;99.90
40676;DHT22;26359;48.750;9.314;2022-12-18T00:25:52;-6.10;99.90
40676;DHT22;26359;48.750;9.314;2022-12-18T00:28:18;-6.10;99.90
40676;DHT22;26359;48.750;9.314;2022-12-18T00:30:44;-6.20;99.90
40676;DHT22;26359;48.750;9.314;2022-12-18T00:33:09;-6.40;99.90
40676;DHT22;26359;48.750;9.314;2022-12-18T00:35:35;-6.60;99.90
40676;DHT22;26359;48.750;9.314;2022-12-18T00:38:00;-6.60;99.90
40676;DHT22;26359;48.750;9.314;2022-12-18T00:40:26;-6.70;99.90
40676;DHT22;26359;48.750;9.314;2022-12-18T00:42:51;-6.70;99.90
40676;DHT22;26359;48.750;9.314;2022-12-18T00:45:28;-6.70;99.90
40676;DHT22;26359;48.750;9.314;2022-12-18T00:47:54;-6.70;99.90
40676;DHT22;26359;48.750;9.314;2022-12-18T00:50:21;-6.70;99.90
40676;DHT22;26359;48.750;9.314;2022-12-18T00:52:47;-6.60;99.90
40676;DHT22;26359;48.750;9.314;2022-12-18T00:55:14;-6.60;99.90
40676;DHT22;26359;48.750;9.314;2022-12-18T00:57:39;-6.70;99.90
40676;DHT22;26359;48.750;9.314;2022-12-18T01:00:07;-6.70;99.90
40676;DHT22;26359;48.750;9.314;2022-12-18T01:02:33;-6.60;99.90
40676;DHT22;26359;48.750;9.314;2022-12-18T01:04:58;-6.60;99.90
40676;DHT22;26359;48.750;9.314;2022-12-18T01:07:24;-6.70;99.90
40676;DHT22;26359;48.750;9.314;2022-12-18T01:09:49;-6.70;99.90
40676;DHT22;26359;48.750;9.314;2022-12-18T01:12:15;-6.70;99.90
40676;DHT22;26359;48.750;9.314;2022-12-18T01:14:41;-6.70;99.90
40676;DHT22;26359;48.750;9.314;2022-12-18T01:17:06;-6.70;99.90
40676;DHT22;26359;48.750;9.314;2022-12-18T01:19:32;-6.70;99.90
40676;DHT22;26359;48.750;9.314;2022-12-18T01:21:58;-6.80;99.90
40676;DHT22;26359;48.750;9.314;2022-12-18T01:24:24;-6.80;99.90
40676;DHT22;26359;48.750;9.314;2022-12-18T01:26:49;-6.80;99.90
40676;DHT22;26359;48.750;9.314;2022-12-18T01:29:15;-6.80;99.90
40676;DHT22;26359;48.750;9.314;2022-12-18T01:31:40;-6.70;99.90
40676;DHT22;26359;48.750;9.314;2022-12-18T01:34:06;-6.70;99.90
40676;DHT22;26359;48.750;9.314;2022-12-18T01:36:34;-6.60;99.90
40676;DHT22;26359;48.750;9.314;2022-12-18T01:39:02;-6.70;99.90
40676;DHT22;26359;48.750;9.314;2022-12-18T01:41:29;-6.70;99.90
40676;DHT22;26359;48.750;9.314;2022-12-18T01:52:33;-6.90;99.90
40676;DHT22;26359;48.750;9.314;2022-12-18T01:55:00;-6.80;99.90
40676;DHT22;26359;48.750;9.314;2022-12-18T01:57:28;-6.70;99.90
40676;DHT22;26359;48.750;9.314;2022-12-18T01:59:57;-6.80;99.90
40676;DHT22;26359;48.750;9.314;2022-12-18T02:02:28;-6.90;99.90
40676;DHT22;26359;48.750;9.314;2022-12-18T02:04:54;-6.90;99.90
40676;DHT22;26359;48.750;9.314;2022-12-18T02:07:42;-6.80;99.90
40676;DHT22;26359;48.750;9.314;2022-12-18T02:10:35;-6.80;99.90
40676;DHT22;26359;48.750;9.314;2022-12-18T02:13:12;-6.80;99.90
40676;DHT22;26359;48.750;9.314;2022-12-18T02:15:47;-6.90;99.90
40676;DHT22;26359;48.750;9.314;2022-12-18T02:18:23;-6.90;99.90
40676;DHT22;26359;48.750;9.314;2022-12-18T02:23:56;-7.20;99.90
40676;DHT22;26359;48.750;9.314;2022-12-18T02:26:50;-7.30;99.90
40676;DHT22;26359;48.750;9.314;2022-12-18T02:29:39;-7.20;99.90
40676;DHT22;26359;48.750;9.314;2022-12-18T02:32:12;-7.10;99.90
40676;DHT22;26359;48.750;9.314;2022-12-18T02:34:40;-7.20;99.90
40676;DHT22;26359;48.750;9.314;2022-12-18T02:37:10;-7.10;99.90
40676;DHT22;26359;48.750;9.314;2022-12-18T02:39:38;-7.00;99.90
40676;DHT22;26359;48.750;9.314;2022-12-18T02:42:05;-7.00;99.90
40676;DHT22;26359;48.750;9.314;2022-12-18T02:44:45;-7.00;99.90
40676;DHT22;26359;48.750;9.314;2022-12-18T02:47:16;-6.80;99.90
40676;DHT22;26359;48.750;9.314;2022-12-18T02:50:03;-7.00;99.90
40676;DHT22;26359;48.750;9.314;2022-12-18T03:00:35;-6.90;99.90
40676;DHT22;26359;48.750;9.314;2022-12-18T03:03:06;-7.00;99.90
40676;DHT22;26359;48.750;9.314;2022-12-18T03:05:58;-7.00;99.90
40676;DHT22;26359;48.750;9.314;2022-12-18T03:08:28;-7.00;99.90
40676;DHT22;26359;48.750;9.314;2022-12-18T03:11:05;-7.10;99.90
40676;DHT22;26359;48.750;9.314;2022-12-18T03:13:43;-7.00;99.90
40676;DHT22;26359;48.750;9.314;2022-12-18T03:16:14;-7.10;99.90
40676;DHT22;26359;48.750;9.314;2022-12-18T03:18:47;-7.10;99.90
40676;DHT22;26359;48.750;9.314;2022-12-18T03:21:14;-7.10;99.90
40676;DHT22;26359;48.750;9.314;2022-12-18T03:23:48;-7.10;99.90
40676;DHT22;26359;48.750;9.314;2022-12-18T03:26:17;-7.00;99.90
40676;DHT22;26359;48.750;9.314;2022-12-18T03:28:51;-7.10;99.90
40676;DHT22;26359;48.750;9.314;2022-12-18T03:31:18;-7.10;99.90
40676;DHT22;26359;48.750;9.314;2022-12-18T03:33:52;-7.10;99.90
40676;DHT22;26359;48.750;9.314;2022-12-18T03:36:18;-7.00;99.90
40676;DHT22;26359;48.750;9.314;2022-12-18T03:38:44;-7.00;99.90
40676;DHT22;26359;48.750;9.314;2022-12-18T03:46:28;-7.10;99.90
40676;DHT22;26359;48.750;9.314;2022-12-18T03:51:55;-7.20;99.90
40676;DHT22;26359;48.750;9.314;2022-12-18T03:54:22;-7.20;99.90
40676;DHT22;26359;48.750;9.314;2022-12-18T03:56:54;-7.10;99.90
40676;DHT22;26359;48.750;9.314;2022-12-18T03:59:23;-7.10;99.90
40676;DHT22;26359;48.750;9.314;2022-12-18T04:01:51;-7.20;99.90
40676;DHT22;26359;48.750;9.314;2022-12-18T04:04:19;-7.10;99.90
40676;DHT22;26359;48.750;9.314;2022-12-18T04:06:46;-7.10;99.90
40676;DHT22;26359;48.750;9.314;2022-12-18T04:09:13;-7.10;99.90
40676;DHT22;26359;48.750;9.314;2022-12-18T04:11:41;-7.00;99.90
40676;DHT22;26359;48.750;9.314;2022-12-18T04:14:09;-7.00;99.90
40676;DHT22;26359;48.750;9.314;2022-12-18T04:16:35;-7.10;99.90
40676;DHT22;26359;48.750;9.314;2022-12-18T04:19:00;-7.20;99.90
40676;DHT22;26359;48.750;9.314;2022-12-18T04:21:26;-7.20;99.90
40676;DHT22;26359;48.750;9.314;2022-12-18T04:23:51;-7.30;99.90
40676;DHT22;26359;48.750;9.314;2022-12-18T04:26:17;-7.40;99.90
40676;DHT22;26359;48.750;9.314;2022-12-18T04:28:42;-7.40;99.90
40676;DHT22;26359;48.750;9.314;2022-12-18T04:31:08;-7.40;99.90
40676;DHT22;26359;48.750;9.314;2022-12-18T04:33:34;-7.50;99.90
40676;DHT22;26359;48.750;9.314;2022-12-18T04:35:59;-7.60;99.90
40676;DHT22;26359;48.750;9.314;2022-12-18T04:38:25;-7.80;99.90
40676;DHT22;26359;48.750;9.314;2022-12-18T04:40:50;-7.90;99.90
40676;DHT22;26359;48.750;9.314;2022-12-18T04:43:16;-8.00;99.90
40676;DHT22;26359;48.750;9.314;2022-12-18T04:45:41;-7.90;99.90
40676;DHT22;26359;48.750;9.314;2022-12-18T04:48:07;-7.80;99.90
40676;DHT22;26359;48.750;9.314;2022-12-18T04:50:33;-7.70;99.90
40676;DHT22;26359;48.750;9.314;2022-12-18T04:52:58;-7.70;99.90
40676;DHT22;26359;48.750;9.314;2022-12-18T04:55:24;-7.70;99.90
40676;DHT22;26359;48.750;9.314;2022-12-18T04:57:49;-7.60;99.90
40676;DHT22;26359;48.750;9.314;2022-12-18T05:00:15;-7.80;99.90
40676;DHT22;26359;48.750;9.314;2022-12-18T05:02:41;-8.00;99.90
40676;DHT22;26359;48.750;9.314;2022-12-18T05:05:07;-8.10;99.90
40676;DHT22;26359;48.750;9.314;2022-12-18T05:07:32;-8.30;99.90
40676;DHT22;26359;48.750;9.314;2022-12-18T05:09:58;-8.50;99.90
40676;DHT22;26359;48.750;9.314;2022-12-18T05:12:24;-8.50;99.90
40676;DHT22;26359;48.750;9.314;2022-12-18T05:14:49;-8.60;99.90
40676;DHT22;26359;48.750;9.314;2022-12-18T05:17:15;-8.70;99.90
40676;DHT22;26359;48.750;9.314;2022-12-18T05:19:40;-8.70;99.90
40676;DHT22;26359;48.750;9.314;2022-12-18T05:22:06;-8.70;99.90
40676;DHT22;26359;48.750;9.314;2022-12-18T05:24:33;-8.60;99.90
40676;DHT22;26359;48.750;9.314;2022-12-18T05:26:59;-8.60;99.90
40676;DHT22;26359;48.750;9.314;2022-12-18T05:29:24;-8.60;99.90
40676;DHT22;26359;48.750;9.314;2022-12-18T05:31:50;-8.60;99.90
40676;DHT22;26359;48.750;9.314;2022-12-18T05:34:16;-8.50;99.90
40676;DHT22;26359;48.750;9.314;2022-12-18T05:36:41;-8.50;99.90
40676;DHT22;26359;48.750;9.314;2022-12-18T05:39:07;-8.60;99.90
40676;DHT22;26359;48.750;9.314;2022-12-18T05:41:33;-8.70;99.90
40676;DHT22;26359;48.750;9.314;2022-12-18T05:43:58;-8.60;99.90
40676;DHT22;26359;48.750;9.314;2022-12-18T05:46:24;-8.60;99.90
40676;DHT22;26359;48.750;9.314;2022-12-18T05:48:50;-8.50;99.90
40676;DHT22;26359;48.750;9.314;2022-12-18T05:51:19;-8.50;99.90
40676;DHT22;26359;48.750;9.314;2022-12-18T05:53:45;-8.40;99.90
40676;DHT22;26359;48.750;9.314;2022-12-18T05:56:14;-8.60;99.90
40676;DHT22;26359;48.750;9.314;2022-12-18T05:58:40;-8.60;99.90
40676;DHT22;26359;48.750;9.314;2022-12-18T06:01:16;-8.60;99.90
40676;DHT22;26359;48.750;9.314;2022-12-18T06:03:42;-8.60;99.90
40676;DHT22;26359;48.750;9.314;2022-12-18T06:06:16;-8.80;99.90
40676;DHT22;26359;48.750;9.314;2022-12-18T06:08:42;-8.90;99.90
40676;DHT22;26359;48.750;9.314;2022-12-18T06:11:07;-9.10;99.90
40676;DHT22;26359;48.750;9.314;2022-12-18T06:13:33;-9.10;99.90
40676;DHT22;26359;48.750;9.314;2022-12-18T06:16:02;-9.00;99.90
40676;DHT22;26359;48.750;9.314;2022-12-18T06:18:28;-8.80;99.90
40676;DHT22;26359;48.750;9.314;2022-12-18T06:20:57;-8.70;99.90
40676;DHT22;26359;48.750;9.314;2022-12-18T06:23:23;-8.70;99.90
40676;DHT22;26359;48.750;9.314;2022-12-18T06:25:49;-8.70;99.90
40676;DHT22;26359;48.750;9.314;2022-12-18T06:28:15;-8.60;99.90
40676;DHT22;26359;48.750;9.314;2022-12-18T06:30:44;-8.60;99.90
40676;DHT22;26359;48.750;9.314;2022-12-18T06:33:09;-8.50;99.90
40676;DHT22;26359;48.750;9.314;2022-12-18T06:35:35;-8.60;99.90
40676;DHT22;26359;48.750;9.314;2022-12-18T06:38:01;-8.60;99.90
40676;DHT22;26359;48.750;9.314;2022-12-18T06:40:27;-8.60;99.90
40676;DHT22;26359;48.750;9.314;2022-12-18T06:42:52;-8.60;99.90
40676;DHT22;26359;48.750;9.314;2022-12-18T06:45:18;-8.60;99.90
40676;DHT22;26359;48.750;9.314;2022-12-18T06:47:43;-8.70;99.90
40676;DHT22;26359;48.750;9.314;2022-12-18T06:50:09;-8.70;99.90
40676;DHT22;26359;48.750;9.314;2022-12-18T06:52:35;-8.70;99.90
40676;DHT22;26359;48.750;9.314;2022-12-18T06:55:00;-8.70;99.90
40676;DHT22;26359;48.750;9.314;2022-12-18T06:57:26;-8.60;99.90
40676;DHT22;26359;48.750;9.314;2022-12-18T06:59:51;-8.60;99.90
40676;DHT22;26359;48.750;9.314;2022-12-18T07:02:17;-8.60;99.90
40676;DHT22;26359;48.750;9.314;2022-12-18T07:04:43;-8.90;99.90
40676;DHT22;26359;48.750;9.314;2022-12-18T07:07:08;-9.10;99.90
40676;DHT22;26359;48.750;9.314;2022-12-18T07:09:34;-9.00;99.90
40676;DHT22;26359;48.750;9.314;2022-12-18T07:11:59;-8.90;99.90
40676;DHT22;26359;48.750;9.314;2022-12-18T07:14:25;-8.80;99.90
40676;DHT22;26359;48.750;9.314;2022-12-18T07:16:50;-8.70;99.90
40676;DHT22;26359;48.750;9.314;2022-12-18T07:19:16;-9.00;99.90
40676;DHT22;26359;48.750;9.314;2022-12-18T07:21:41;-9.10;99.90
40676;DHT22;26359;48.750;9.314;2022-12-18T07:24:07;-9.10;99.90
40676;DHT22;26359;48.750;9.314;2022-12-18T07:26:32;-8.90;99.90
40676;DHT22;26359;48.750;9.314;2022-12-18T07:28:58;-8.90;99.90
40676;DHT22;26359;48.750;9.314;2022-12-18T07:31:24;-8.80;99.90
40676;DHT22;26359;48.750;9.314;2022-12-18T07:33:50;-8.90;99.90
40676;DHT22;26359;48.750;9.314;2022-12-18T07:36:16;-8.80;99.90
40676;DHT22;26359;48.750;9.314;2022-12-18T07:38:42;-8.80;99.90
40676;DHT22;26359;48.750;9.314;2022-12-18T07:41:10;-8.70;99.90
40676;DHT22;26359;48.750;9.314;2022-12-18T07:43:37;-8.60;99.90
40676;DHT22;26359;48.750;9.314;2022-12-18T07:46:03;-8.70;99.90
40676;DHT22;26359;48.750;9.314;2022-12-18T07:48:29;-8.80;99.90
40676;DHT22;26359;48.750;9.314;2022-12-18T07:50:59;-8.70;99.90
40676;DHT22;26359;48.750;9.314;2022-12-18T07:53:24;-8.80;99.90
40676;DHT22;26359;48.750;9.314;2022-12-18T07:55:57;-8.80;99.90
40676;DHT22;26359;48.750;9.314;2022-12-18T07:58:23;-8.70;99.90
40676;DHT22;26359;48.750;9.314;2022-12-18T08:00:49;-8.80;99.90
40676;DHT22;26359;48.750;9.314;2022-12-18T08:03:15;-8.70;99.90
40676;DHT22;26359;48.750;9.314;2022-12-18T08:05:40;-8.70;99.90
40676;DHT22;26359;48.750;9.314;2022-12-18T08:08:06;-8.60;99.90
40676;DHT22;26359;48.750;9.314;2022-12-18T08:10:31;-8.50;99.90
40676;DHT22;26359;48.750;9.314;2022-12-18T08:12:57;-8.50;99.90
40676;DHT22;26359;48.750;9.314;2022-12-18T08:15:23;-8.50;99.90
40676;DHT22;26359;48.750;9.314;2022-12-18T08:17:48;-8.70;99.90
40676;DHT22;26359;48.750;9.314;2022-12-18T08:20:14;-8.60;99.90
40676;DHT22;26359;48.750;9.314;2022-12-18T08:22:41;-8.80;99.90
40676;DHT22;26359;48.750;9.314;2022-12-18T08:25:07;-8.70;99.90
40676;DHT22;26359;48.750;9.314;2022-12-18T08:27:32;-8.70;99.90
40676;DHT22;26359;48.750;9.314;2022-12-18T08:29:58;-8.60;99.90
40676;DHT22;26359;48.750;9.314;2022-12-18T08:32:25;-8.60;99.90
40676;DHT22;26359;48.750;9.314;2022-12-18T08:34:51;-8.60;99.90
40676;DHT22;26359;48.750;9.314;2022-12-18T08:37:16;-8.50;99.90
40676;DHT22;26359;48.750;9.314;2022-12-18T08:39:42;-8.40;99.90
40676;DHT22;26359;48.750;9.314;2022-12-18T08:42:07;-8.40;99.90
40676;DHT22;26359;48.750;9.314;2022-12-18T08:44:51;-8.30;99.90
40676;DHT22;26359;48.750;9.314;2022-12-18T08:47:17;-8.30;99.90
40676;DHT22;26359;48.750;9.314;2022-12-18T08:49:42;-8.30;99.90
40676;DHT22;26359;48.750;9.314;2022-12-18T08:52:08;-8.10;99.90
40676;DHT22;26359;48.750;9.314;2022-12-18T08:54:34;-8.00;99.90
40676;DHT22;26359;48.750;9.314;2022-12-18T08:56:59;-7.90;99.90
40676;DHT22;26359;48.750;9.314;2022-12-18T08:59:25;-7.80;99.90
40676;DHT22;26359;48.750;9.314;2022-12-18T09:01:53;-7.70;99.90
40676;DHT22;26359;48.750;9.314;2022-12-18T09:04:19;-7.50;99.90
40676;DHT22;26359;48.750;9.314;2022-12-18T09:06:45;-7.10;99.90
40676;DHT22;26359;48.750;9.314;2022-12-18T09:09:10;-6.70;99.90
40676;DHT22;26359;48.750;9.314;2022-12-18T09:11:36;-6.20;99.90
40676;DHT22;26359;48.750;9.314;2022-12-18T09:14:02;-5.60;99.90
40676;DHT22;26359;48.750;9.314;2022-12-18T09:16:29;-5.20;99.90
40676;DHT22;26359;48.750;9.314;2022-12-18T09:18:55;-5.10;99.90
40676;DHT22;26359;48.750;9.314;2022-12-18T09:21:25;-4.90;99.90
40676;DHT22;26359;48.750;9.314;2022-12-18T09:23:52;-4.90;99.90
40676;DHT22;26359;48.750;9.314;2022-12-18T09:26:19;-4.40;99.90
40676;DHT22;26359;48.750;9.314;2022-12-18T09:28:44;-4.20;99.90
40676;DHT22;26359;48.750;9.314;2022-12-18T09:31:11;-3.80;99.90
40676;DHT22;26359;48.750;9.314;2022-12-18T09:33:37;-3.40;99.90
40676;DHT22;26359;48.750;9.314;2022-12-18T09:36:05;-3.00;99.90
40676;DHT22;26359;48.750;9.314;2022-12-18T09:38:32;-2.80;99.90
40676;DHT22;26359;48.750;9.314;2022-12-18T09:41:03;-2.70;99.90
40676;DHT22;26359;48.750;9.314;2022-12-18T09:43:37;-2.70;99.90
40676;DHT22;26359;48.750;9.314;2022-12-18T09:46:11;-2.70;99.90
40676;DHT22;26359;48.750;9.314;2022-12-18T09:48:45;-2.60;99.90
40676;DHT22;26359;48.750;9.314;2022-12-18T09:51:17;-2.60;99.90
40676;DHT22;26359;48.750;9.314;2022-12-18T09:53:49;-2.60;99.90
40676;DHT22;26359;48.750;9.314;2022-12-18T09:56:19;-2.50;99.90
40676;DHT22;26359;48.750;9.314;2022-12-18T09:59:00;-2.50;99.90
40676;DHT22;26359;48.750;9.314;2022-12-18T10:01:28;-2.50;99.90
40676;DHT22;26359;48.750;9.314;2022-12-18T10:03:54;-2.40;99.90
40676;DHT22;26359;48.750;9.314;2022-12-18T10:12:08;-2.20;99.90
40676;DHT22;26359;48.750;9.314;2022-12-18T10:14:51;-2.20;99.90
40676;DHT22;26359;48.750;9.314;2022-12-18T10:17:45;-2.20;99.90
40676;DHT22;26359;48.750;9.314;2022-12-18T10:20:21;-2.40;99.90
40676;DHT22;26359;48.750;9.314;2022-12-18T10:28:13;-1.60;99.90
40676;DHT22;26359;48.750;9.314;2022-12-18T10:30:41;-1.50;99.90
40676;DHT22;26359;48.750;9.314;2022-12-18T10:33:12;-1.50;99.90
40676;DHT22;26359;48.750;9.314;2022-12-18T10:35:41;-1.80;99.90
40676;DHT22;26359;48.750;9.314;2022-12-18T10:40:56;-1.70;99.90
40676;DHT22;26359;48.750;9.314;2022-12-18T10:43:26;-1.00;99.90
40676;DHT22;26359;48.750;9.314;2022-12-18T10:46:19;-0.80;99.90
40676;DHT22;26359;48.750;9.314;2022-12-18T10:51:34;0.10;99.90
40676;DHT22;26359;48.750;9.314;2022-12-18T10:54:16;0.40;99.90
40676;DHT22;26359;48.750;9.314;2022-12-18T10:56:42;0.50;99.90
40676;DHT22;26359;48.750;9.314;2022-12-18T10:59:14;0.50;99.90
40676;DHT22;26359;48.750;9.314;2022-12-18T11:01:58;0.50;99.90
40676;DHT22;26359;48.750;9.314;2022-12-18T11:04:25;-0.60;99.90
40676;DHT22;26359;48.750;9.314;2022-12-18T11:07:02;-0.20;99.90
40676;DHT22;26359;48.750;9.314;2022-12-18T11:09:30;-0.60;99.90
40676;DHT22;26359;48.750;9.314;2022-12-18T11:11:59;-0.70;99.90
40676;DHT22;26359;48.750;9.314;2022-12-18T11:14:34;-0.70;99.90
40676;DHT22;26359;48.750;9.314;2022-12-18T11:17:18;-0.40;99.90
40676;DHT22;26359;48.750;9.314;2022-12-18T11:19:44;-0.50;99.90
40676;DHT22;26359;48.750;9.314;2022-12-18T11:22:21;-0.70;99.90
40676;DHT22;26359;48.750;9.314;2022-12-18T11:24:56;-0.50;99.90
40676;DHT22;26359;48.750;9.314;2022-12-18T11:27:22;-0.30;99.90
40676;DHT22;26359;48.750;9.314;2022-12-18T11:29:50;-0.50;99.90
40676;DHT22;26359;48.750;9.314;2022-12-18T11:32:27;-0.50;99.90
40676;DHT22;26359;48.750;9.314;2022-12-18T11:35:17;-0.40;99.90
40676;DHT22;26359;48.750;9.314;2022-12-18T11:37:48;-0.60;99.90
40676;DHT22;26359;48.750;9.314;2022-12-18T11:40:19;-0.60;99.90
40676;DHT22;26359;48.750;9.314;2022-12-18T11:42:52;-0.70;99.90
40676;DHT22;26359;48.750;9.314;2022-12-18T11:45:30;-0.90;99.90
40676;DHT22;26359;48.750;9.314;2022-12-18T11:48:26;-0.90;99.90
40676;DHT22;26359;48.750;9.314;2022-12-18T11:50:57;-0.80;99.90
40676;DHT22;26359;48.750;9.314;2022-12-18T11:53:25;-1.20;99.90
40676;DHT22;26359;48.750;9.314;2022-12-18T11:58:54;-0.80;99.90
40676;DHT22;26359;48.750;9.314;2022-12-18T12:09:31;-0.40;99.90
40676;DHT22;26359;48.750;9.314;2022-12-18T12:15:21;-0.40;99.90
40676;DHT22;26359;48.750;9.314;2022-12-18T12:18:18;-0.50;99.90
40676;DHT22;26359;48.750;9.314;2022-12-18T12:21:08;-0.50;99.90
40676;DHT22;26359;48.750;9.314;2022-12-18T12:23:58;-0.30;99.90
40676;DHT22;26359;48.750;9.314;2022-12-18T12:26:33;-0.20;99.90
40676;DHT22;26359;48.750;9.314;2022-12-18T12:34:26;0.00;99.90
40676;DHT22;26359;48.750;9.314;2022-12-18T12:39:48;-0.30;99.90
40676;DHT22;26359;48.750;9.314;2022-12-18T12:42:20;-0.20;99.90
40676;DHT22;26359;48.750;9.314;2022-12-18T12:45:19;-0.20;99.90
40676;DHT22;26359;48.750;9.314;2022-12-18T12:47:48;0.00;99.90
40676;DHT22;26359;48.750;9.314;2022-12-18T12:50:17;0.00;99.90
40676;DHT22;26359;48.750;9.314;2022-12-18T12:52:52;0.10;99.90
40676;DHT22;26359;48.750;9.314;2022-12-18T12:55:21;0.00;99.90
40676;DHT22;26359;48.750;9.314;2022-12-18T12:58:11;0.00;99.90
40676;DHT22;26359;48.750;9.314;2022-12-18T13:01:25;0.00;99.90
40676;DHT22;26359;48.750;9.314;2022-12-18T13:03:41;-0.10;99.90
40676;DHT22;26359;48.750;9.314;2022-12-18T13:06:19;-0.20;99.90
40676;DHT22;26359;48.750;9.314;2022-12-18T13:08:58;-0.20;99.90
40676;DHT22;26359;48.750;9.314;2022-12-18T13:11:42;-0.10;99.90
40676;DHT22;26359;48.750;9.314;2022-12-18T13:14:30;-0.10;99.90
40676;DHT22;26359;48.750;9.314;2022-12-18T13:17:16;-0.10;99.90
40676;DHT22;26359;48.750;9.314;2022-12-18T13:19:42;0.00;99.90
40676;DHT22;26359;48.750;9.314;2022-12-18T13:22:23;0.10;99.90
40676;DHT22;26359;48.750;9.314;2022-12-18T13:24:50;0.00;99.90
40676;DHT22;26359;48.750;9.314;2022-12-18T13:41:01;-0.60;99.90
40676;DHT22;26359;48.750;9.314;2022-12-18T13:46:29;-0.90;99.90
40676;DHT22;26359;48.750;9.314;2022-12-18T13:49:04;-0.80;99.90
40676;DHT22;26359;48.750;9.314;2022-12-18T13:51:33;-0.70;99.90
40676;DHT22;26359;48.750;9.314;2022-12-18T13:56:45;-0.80;99.90
40676;DHT22;26359;48.750;9.314;2022-12-18T14:01:42;-1.20;99.90
40676;DHT22;26359;48.750;9.314;2022-12-18T14:04:20;-1.00;99.90
40676;DHT22;26359;48.750;9.314;2022-12-18T14:06:47;-1.00;99.90
40676;DHT22;26359;48.750;9.314;2022-12-18T14:09:40;-0.90;99.90
40676;DHT22;26359;48.750;9.314;2022-12-18T14:12:06;-0.80;99.90
40676;DHT22;26359;48.750;9.314;2022-12-18T14:14:55;-0.90;99.90
40676;DHT22;26359;48.750;9.314;2022-12-18T14:17:22;-1.00;99.90
40676;DHT22;26359;48.750;9.314;2022-12-18T14:19:50;-0.90;99.90
40676;DHT22;26359;48.750;9.314;2022-12-18T14:22:18;-0.90;99.90
40676;DHT22;26359;48.750;9.314;2022-12-18T14:24:46;-0.90;99.90
40676;DHT22;26359;48.750;9.314;2022-12-18T14:27:23;-0.80;99.90
40676;DHT22;26359;48.750;9.314;2022-12-18T14:29:49;-1.00;99.90
40676;DHT22;26359;48.750;9.314;2022-12-18T14:32:17;-1.00;99.90
40676;DHT22;26359;48.750;9.314;2022-12-18T14:34:53;-1.00;99.90
40676;DHT22;26359;48.750;9.314;2022-12-18T14:37:26;-1.10;99.90
40676;DHT22;26359;48.750;9.314;2022-12-18T14:39:59;-1.20;99.90
40676;DHT22;26359;48.750;9.314;2022-12-18T14:42:26;-1.10;99.90
40676;DHT22;26359;48.750;9.314;2022-12-18T14:45:32;-1.10;99.90
40676;DHT22;26359;48.750;9.314;2022-12-18T14:47:59;-1.10;99.90
40676;DHT22;26359;48.750;9.314;2022-12-18T14:50:25;-1.10;99.90
40676;DHT22;26359;48.750;9.314;2022-12-18T14:52:52;-1.10;99.90
40676;DHT22;26359;48.750;9.314;2022-12-18T14:55:18;-1.20;99.90
40676;DHT22;26359;48.750;9.314;2022-12-18T14:57:45;-1.20;99.90
40676;DHT22;26359;48.750;9.314;2022-12-18T15:00:18;-1.30;99.90
40676;DHT22;26359;48.750;9.314;2022-12-18T15:02:51;-1.30;99.90
40676;DHT22;26359;48.750;9.314;2022-12-18T15:05:27;-1.40;99.90
40676;DHT22;26359;48.750;9.314;2022-12-18T15:07:58;-1.40;99.90
40676;DHT22;26359;48.750;9.314;2022-12-18T15:10:32;-1.50;99.90
40676;DHT22;26359;48.750;9.314;2022-12-18T15:20:43;-1.70;99.90
40676;DHT22;26359;48.750;9.314;2022-12-18T15:25:43;-1.70;99.90
40676;DHT22;26359;48.750;9.314;2022-12-18T15:28:34;-1.80;99.90
40676;DHT22;26359;48.750;9.314;2022-12-18T15:31:03;-1.80;99.90
40676;DHT22;26359;48.750;9.314;2022-12-18T15:34:19;-1.80;99.90
40676;DHT22;26359;48.750;9.314;2022-12-18T15:36:26;-1.90;99.90
40676;DHT22;26359;48.750;9.314;2022-12-18T15:38:54;-2.00;99.90
40676;DHT22;26359;48.750;9.314;2022-12-18T15:41:21;-2.10;99.90
40676;DHT22;26359;48.750;9.314;2022-12-18T15:43:52;-2.10;99.90
40676;DHT22;26359;48.750;9.314;2022-12-18T15:46:20;-2.20;99.90
40676;DHT22;26359;48.750;9.314;2022-12-18T15:48:50;-2.20;99.90
40676;DHT22;26359;48.750;9.314;2022-12-18T15:51:18;-2.20;99.90
40676;DHT22;26359;48.750;9.314;2022-12-18T15:53:44;-2.20;99.90
40676;DHT22;26359;48.750;9.314;2022-12-18T15:56:14;-2.30;99.90
40676;DHT22;26359;48.750;9.314;2022-12-18T15:58:59;-2.30;99.90
40676;DHT22;26359;48.750;9.314;2022-12-18T16:01:27;-2.40;99.90
40676;DHT22;26359;48.750;9.314;2022-12-18T16:03:53;-2.40;99.90
40676;DHT22;26359;48.750;9.314;2022-12-18T16:06:19;-2.50;99.90
40676;DHT22;26359;48.750;9.314;2022-12-18T16:08:45;-2.60;99.90
40676;DHT22;26359;48.750;9.314;2022-12-18T16:11:25;-2.60;99.90
40676;DHT22;26359;48.750;9.314;2022-12-18T16:14:18;-2.60;99.90
40676;DHT22;26359;48.750;9.314;2022-12-18T16:16:56;-2.60;99.90
40676;DHT22;26359;48.750;9.314;2022-12-18T16:19:22;-2.60;99.90
40676;DHT22;26359;48.750;9.314;2022-12-18T16:21:48;-2.70;99.90
40676;DHT22;26359;48.750;9.314;2022-12-18T16:24:18;-2.70;99.90
40676;DHT22;26359;48.750;9.314;2022-12-18T16:26:45;-2.80;99.90
40676;DHT22;26359;48.750;9.314;2022-12-18T16:29:10;-2.80;99.90
40676;DHT22;26359;48.750;9.314;2022-12-18T16:31:36;-2.80;99.90
40676;DHT22;26359;48.750;9.314;2022-12-18T16:36:49;-2.70;99.90
40676;DHT22;26359;48.750;9.314;2022-12-18T16:39:15;-2.70;99.90
40676;DHT22;26359;48.750;9.314;2022-12-18T16:41:41;-2.70;99.90
40676;DHT22;26359;48.750;9.314;2022-12-18T16:44:07;-2.70;99.90
40676;DHT22;26359;48.750;9.314;2022-12-18T16:46:32;-2.70;99.90
40676;DHT22;26359;48.750;9.314;2022-12-18T16:48:58;-2.70;99.90
40676;DHT22;26359;48.750;9.314;2022-12-18T16:51:28;-2.80;99.90
40676;DHT22;26359;48.750;9.314;2022-12-18T16:53:55;-2.80;99.90
40676;DHT22;26359;48.750;9.314;2022-12-18T16:56:22;-2.80;99.90
40676;DHT22;26359;48.750;9.314;2022-12-18T16:58:52;-2.80;99.90
40676;DHT22;26359;48.750;9.314;2022-12-18T17:01:18;-2.80;99.90
40676;DHT22;26359;48.750;9.314;2022-12-18T17:03:43;-2.80;99.90
40676;DHT22;26359;48.750;9.314;2022-12-18T17:06:09;-2.80;99.90
40676;DHT22;26359;48.750;9.314;2022-12-18T17:08:34;-2.90;99.90
40676;DHT22;26359;48.750;9.314;2022-12-18T17:11:05;-3.00;99.90
40676;DHT22;26359;48.750;9.314;2022-12-18T17:13:31;-2.90;99.90
40676;DHT22;26359;48.750;9.314;2022-12-18T17:16:02;-2.90;99.90
40676;DHT22;26359;48.750;9.314;2022-12-18T17:18:28;-2.90;99.90
40676;DHT22;26359;48.750;9.314;2022-12-18T17:20:58;-2.90;99.90
40676;DHT22;26359;48.750;9.314;2022-12-18T17:23:24;-3.00;99.90
40676;DHT22;26359;48.750;9.314;2022-12-18T17:25:53;-3.00;99.90
40676;DHT22;26359;48.750;9.314;2022-12-18T17:28:19;-3.00;99.90
40676;DHT22;26359;48.750;9.314;2022-12-18T17:30:46;-3.00;99.90